sensor_id;sensor_type;location;lat;lon;timestamp;temperature;humidity
62339;DHT22;48368;53.406;6.214;2022-11-15T00:02:21;7.40;99.90
62339;DHT22;48368;53.406;6.214;2022-11-15T00:04:47;7.40;99.90
62339;DHT22;48368;53.406;6.214;2022-11-15T00:07:12;7.40;99.90
62339;DHT22;48368;53.406;6.214;2022-11-15T00:09:38;7.50;99.90
62339;DHT22;48368;53.406;6.214;2022-11-15T00:12:04;7.50;99.90
62339;DHT22;48368;53.406;6.214;2022-11-15T00:14:29;7.40;99.90
62339;DHT22;48368;53.406;6.214;2022-11-15T00:16:55;7.50;99.90
62339;DHT22;48368;53.406;6.214;2022-11-15T00:19:20;7.40;99.90
62339;DHT22;48368;53.406;6.214;2022-11-15T00:21:46;7.40;99.90
62339;DHT22;48368;53.406;6.214;2022-11-15T00:24:12;7.40;99.90
62339;DHT22;48368;53.406;6.214;2022-11-15T00:26:37;7.40;99.90
62339;DHT22;48368;53.406;6.214;2022-11-15T00:29:03;7.40;99.90
62339;DHT22;48368;53.406;6.214;2022-11-15T00:31:28;7.40;99.90
62339;DHT22;48368;53.406;6.214;2022-11-15T00:33:54;7.40;99.90
62339;DHT22;48368;53.406;6.214;2022-11-15T00:36:20;7.40;99.90
62339;DHT22;48368;53.406;6.214;2022-11-15T00:38:45;7.30;99.90
62339;DHT22;48368;53.406;6.214;2022-11-15T00:41:11;7.40;99.90
62339;DHT22;48368;53.406;6.214;2022-11-15T00:43:37;7.20;99.90
62339;DHT22;48368;53.406;6.214;2022-11-15T00:46:02;7.30;99.90
62339;DHT22;48368;53.406;6.214;2022-11-15T00:48:29;7.20;99.90
62339;DHT22;48368;53.406;6.214;2022-11-15T00:50:54;7.10;99.90
62339;DHT22;48368;53.406;6.214;2022-11-15T00:53:20;7.20;99.90
62339;DHT22;48368;53.406;6.214;2022-11-15T00:55:46;7.10;99.90
62339;DHT22;48368;53.406;6.214;2022-11-15T00:58:12;7.10;99.90
62339;DHT22;48368;53.406;6.214;2022-11-15T01:00:37;7.10;99.90
62339;DHT22;48368;53.406;6.214;2022-11-15T01:03:03;7.00;99.90
62339;DHT22;48368;53.406;6.214;2022-11-15T01:05:29;7.00;99.90
62339;DHT22;48368;53.406;6.214;2022-11-15T01:07:55;7.00;99.90
62339;DHT22;48368;53.406;6.214;2022-11-15T01:10:22;7.10;99.90
62339;DHT22;48368;53.406;6.214;2022-11-15T01:12:49;7.00;99.90
62339;DHT22;48368;53.406;6.214;2022-11-15T01:15:14;7.10;99.90
62339;DHT22;48368;53.406;6.214;2022-11-15T01:17:40;7.10;99.90
62339;DHT22;48368;53.406;6.214;2022-11-15T01:20:06;7.10;99.90
62339;DHT22;48368;53.406;6.214;2022-11-15T01:22:32;7.10;99.90
62339;DHT22;48368;53.406;6.214;2022-11-15T01:24:58;7.10;99.90
62339;DHT22;48368;53.406;6.214;2022-11-15T01:27:24;7.10;99.90
62339;DHT22;48368;53.406;6.214;2022-11-15T01:29:50;7.10;99.90
62339;DHT22;48368;53.406;6.214;2022-11-15T01:32:15;7.20;99.90
62339;DHT22;48368;53.406;6.214;2022-11-15T01:34:41;7.20;99.90
62339;DHT22;48368;53.406;6.214;2022-11-15T01:37:07;7.20;99.90
62339;DHT22;48368;53.406;6.214;2022-11-15T01:39:32;7.30;99.90
62339;DHT22;48368;53.406;6.214;2022-11-15T01:41:58;7.20;99.90
62339;DHT22;48368;53.406;6.214;2022-11-15T01:44:44;7.30;99.90
62339;DHT22;48368;53.406;6.214;2022-11-15T01:47:35;7.30;99.90
62339;DHT22;48368;53.406;6.214;2022-11-15T01:50:04;7.30;99.90
62339;DHT22;48368;53.406;6.214;2022-11-15T01:52:33;7.30;99.90
62339;DHT22;48368;53.406;6.214;2022-11-15T01:55:21;7.30;99.90
62339;DHT22;48368;53.406;6.214;2022-11-15T01:57:51;7.40;99.90
62339;DHT22;48368;53.406;6.214;2022-11-15T02:00:18;7.40;99.90
62339;DHT22;48368;53.406;6.214;2022-11-15T02:02:44;7.30;99.90
62339;DHT22;48368;53.406;6.214;2022-11-15T02:05:10;7.40;99.90
62339;DHT22;48368;53.406;6.214;2022-11-15T02:07:36;7.40;99.90
62339;DHT22;48368;53.406;6.214;2022-11-15T02:10:09;7.30;99.90
62339;DHT22;48368;53.406;6.214;2022-11-15T02:12:35;7.40;99.90
62339;DHT22;48368;53.406;6.214;2022-11-15T02:15:01;7.40;99.90
62339;DHT22;48368;53.406;6.214;2022-11-15T02:23:17;7.40;99.90
62339;DHT22;48368;53.406;6.214;2022-11-15T02:28:44;7.40;99.90
62339;DHT22;48368;53.406;6.214;2022-11-15T02:31:48;7.30;99.90
62339;DHT22;48368;53.406;6.214;2022-11-15T02:37:04;7.30;99.90
62339;DHT22;48368;53.406;6.214;2022-11-15T02:39:46;7.20;99.90
62339;DHT22;48368;53.406;6.214;2022-11-15T02:42:21;7.20;99.90
62339;DHT22;48368;53.406;6.214;2022-11-15T02:45:10;7.20;99.90
62339;DHT22;48368;53.406;6.214;2022-11-15T02:47:45;7.20;99.90
62339;DHT22;48368;53.406;6.214;2022-11-15T02:50:15;7.20;99.90
62339;DHT22;48368;53.406;6.214;2022-11-15T02:52:45;7.20;99.90
62339;DHT22;48368;53.406;6.214;2022-11-15T02:55:29;7.10;99.90
62339;DHT22;48368;53.406;6.214;2022-11-15T02:58:09;7.10;99.90
62339;DHT22;48368;53.406;6.214;2022-11-15T03:00:59;7.20;99.90
62339;DHT22;48368;53.406;6.214;2022-11-15T03:06:19;7.10;99.90
62339;DHT22;48368;53.406;6.214;2022-11-15T03:11:40;7.00;99.90
62339;DHT22;48368;53.406;6.214;2022-11-15T03:14:29;7.00;99.90
62339;DHT22;48368;53.406;6.214;2022-11-15T03:17:24;7.00;99.90
62339;DHT22;48368;53.406;6.214;2022-11-15T03:19:54;7.00;99.90
62339;DHT22;48368;53.406;6.214;2022-11-15T03:22:23;7.00;99.90
62339;DHT22;48368;53.406;6.214;2022-11-15T03:24:56;7.00;99.90
62339;DHT22;48368;53.406;6.214;2022-11-15T03:27:26;7.00;99.90
62339;DHT22;48368;53.406;6.214;2022-11-15T03:29:57;7.00;99.90
62339;DHT22;48368;53.406;6.214;2022-11-15T03:32:28;7.00;99.90
62339;DHT22;48368;53.406;6.214;2022-11-15T03:35:09;7.00;99.90
62339;DHT22;48368;53.406;6.214;2022-11-15T03:38:05;7.00;99.90
62339;DHT22;48368;53.406;6.214;2022-11-15T03:40:38;7.00;99.90
62339;DHT22;48368;53.406;6.214;2022-11-15T03:43:20;7.00;99.90
62339;DHT22;48368;53.406;6.214;2022-11-15T03:45:57;7.00;99.90
62339;DHT22;48368;53.406;6.214;2022-11-15T03:48:28;6.90;99.90
62339;DHT22;48368;53.406;6.214;2022-11-15T03:50:56;7.00;99.90
62339;DHT22;48368;53.406;6.214;2022-11-15T03:53:22;7.00;99.90
62339;DHT22;48368;53.406;6.214;2022-11-15T03:55:47;7.00;99.90
62339;DHT22;48368;53.406;6.214;2022-11-15T03:58:13;7.10;99.90
62339;DHT22;48368;53.406;6.214;2022-11-15T04:00:38;7.00;99.90
62339;DHT22;48368;53.406;6.214;2022-11-15T04:03:04;7.00;99.90
62339;DHT22;48368;53.406;6.214;2022-11-15T04:05:29;7.00;99.90
62339;DHT22;48368;53.406;6.214;2022-11-15T04:07:55;7.00;99.90
62339;DHT22;48368;53.406;6.214;2022-11-15T04:10:21;7.10;99.90
62339;DHT22;48368;53.406;6.214;2022-11-15T04:12:47;7.10;99.90
62339;DHT22;48368;53.406;6.214;2022-11-15T04:15:19;7.10;99.90
62339;DHT22;48368;53.406;6.214;2022-11-15T04:17:49;7.00;99.90
62339;DHT22;48368;53.406;6.214;2022-11-15T04:20:19;7.00;99.90
62339;DHT22;48368;53.406;6.214;2022-11-15T04:23:09;7.00;99.90
62339;DHT22;48368;53.406;6.214;2022-11-15T04:25:55;7.00;99.90
62339;DHT22;48368;53.406;6.214;2022-11-15T04:28:22;7.10;99.90
62339;DHT22;48368;53.406;6.214;2022-11-15T04:30:47;7.10;99.90
62339;DHT22;48368;53.406;6.214;2022-11-15T04:33:13;7.10;99.90
62339;DHT22;48368;53.406;6.214;2022-11-15T04:35:39;7.10;99.90
62339;DHT22;48368;53.406;6.214;2022-11-15T04:38:07;7.10;99.90
62339;DHT22;48368;53.406;6.214;2022-11-15T04:40:33;7.10;99.90
62339;DHT22;48368;53.406;6.214;2022-11-15T04:42:59;7.20;99.90
62339;DHT22;48368;53.406;6.214;2022-11-15T04:45:25;7.10;99.90
62339;DHT22;48368;53.406;6.214;2022-11-15T04:47:50;7.20;99.90
62339;DHT22;48368;53.406;6.214;2022-11-15T04:50:16;7.20;99.90
62339;DHT22;48368;53.406;6.214;2022-11-15T04:52:48;7.20;99.90
62339;DHT22;48368;53.406;6.214;2022-11-15T04:55:15;7.20;99.90
62339;DHT22;48368;53.406;6.214;2022-11-15T04:57:40;7.20;99.90
62339;DHT22;48368;53.406;6.214;2022-11-15T05:00:08;7.30;99.90
62339;DHT22;48368;53.406;6.214;2022-11-15T05:02:34;7.30;99.90
62339;DHT22;48368;53.406;6.214;2022-11-15T05:05:19;7.30;99.90
62339;DHT22;48368;53.406;6.214;2022-11-15T05:07:45;7.30;99.90
62339;DHT22;48368;53.406;6.214;2022-11-15T05:10:10;7.30;99.90
62339;DHT22;48368;53.406;6.214;2022-11-15T05:12:37;7.30;99.90
62339;DHT22;48368;53.406;6.214;2022-11-15T05:15:03;7.30;99.90
62339;DHT22;48368;53.406;6.214;2022-11-15T05:17:29;7.30;99.90
62339;DHT22;48368;53.406;6.214;2022-11-15T05:19:54;7.40;99.90
62339;DHT22;48368;53.406;6.214;2022-11-15T05:22:20;7.40;99.90
62339;DHT22;48368;53.406;6.214;2022-11-15T05:24:46;7.30;99.90
62339;DHT22;48368;53.406;6.214;2022-11-15T05:27:12;7.40;99.90
62339;DHT22;48368;53.406;6.214;2022-11-15T05:29:37;7.40;99.90
62339;DHT22;48368;53.406;6.214;2022-11-15T05:32:05;7.40;99.90
62339;DHT22;48368;53.406;6.214;2022-11-15T05:34:32;7.40;99.90
62339;DHT22;48368;53.406;6.214;2022-11-15T05:36:58;7.40;99.90
62339;DHT22;48368;53.406;6.214;2022-11-15T05:39:24;7.40;99.90
62339;DHT22;48368;53.406;6.214;2022-11-15T05:42:00;7.50;99.90
62339;DHT22;48368;53.406;6.214;2022-11-15T05:44:28;7.50;99.90
62339;DHT22;48368;53.406;6.214;2022-11-15T05:46:54;7.50;99.90
62339;DHT22;48368;53.406;6.214;2022-11-15T05:49:25;7.50;99.90
62339;DHT22;48368;53.406;6.214;2022-11-15T05:51:53;7.60;99.90
62339;DHT22;48368;53.406;6.214;2022-11-15T05:54:20;7.60;99.90
62339;DHT22;48368;53.406;6.214;2022-11-15T05:56:47;7.60;99.90
62339;DHT22;48368;53.406;6.214;2022-11-15T05:59:13;7.70;99.90
62339;DHT22;48368;53.406;6.214;2022-11-15T06:01:39;7.60;99.90
62339;DHT22;48368;53.406;6.214;2022-11-15T06:04:05;7.70;99.90
62339;DHT22;48368;53.406;6.214;2022-11-15T06:06:31;7.70;99.90
62339;DHT22;48368;53.406;6.214;2022-11-15T06:08:57;7.70;99.90
62339;DHT22;48368;53.406;6.214;2022-11-15T06:11:22;7.70;99.90
62339;DHT22;48368;53.406;6.214;2022-11-15T06:13:48;7.80;99.90
62339;DHT22;48368;53.406;6.214;2022-11-15T06:16:13;7.80;99.90
62339;DHT22;48368;53.406;6.214;2022-11-15T06:18:39;7.80;99.90
62339;DHT22;48368;53.406;6.214;2022-11-15T06:21:05;7.80;99.90
62339;DHT22;48368;53.406;6.214;2022-11-15T06:23:32;7.90;99.90
62339;DHT22;48368;53.406;6.214;2022-11-15T06:25:59;7.80;99.90
62339;DHT22;48368;53.406;6.214;2022-11-15T06:28:27;7.90;99.90
62339;DHT22;48368;53.406;6.214;2022-11-15T06:30:53;8.00;99.90
62339;DHT22;48368;53.406;6.214;2022-11-15T06:33:19;7.90;99.90
62339;DHT22;48368;53.406;6.214;2022-11-15T06:35:44;7.90;99.90
62339;DHT22;48368;53.406;6.214;2022-11-15T06:38:10;7.90;99.90
62339;DHT22;48368;53.406;6.214;2022-11-15T06:40:39;8.00;99.90
62339;DHT22;48368;53.406;6.214;2022-11-15T06:43:05;8.00;99.90
62339;DHT22;48368;53.406;6.214;2022-11-15T06:45:32;8.10;99.90
62339;DHT22;48368;53.406;6.214;2022-11-15T06:48:00;8.10;99.90
62339;DHT22;48368;53.406;6.214;2022-11-15T06:50:26;8.10;99.90
62339;DHT22;48368;53.406;6.214;2022-11-15T06:52:52;8.20;99.90
62339;DHT22;48368;53.406;6.214;2022-11-15T06:55:17;8.20;99.90
62339;DHT22;48368;53.406;6.214;2022-11-15T06:57:50;8.20;99.90
62339;DHT22;48368;53.406;6.214;2022-11-15T07:00:18;8.30;99.90
62339;DHT22;48368;53.406;6.214;2022-11-15T07:02:44;8.30;99.90
62339;DHT22;48368;53.406;6.214;2022-11-15T07:05:10;8.30;99.90
62339;DHT22;48368;53.406;6.214;2022-11-15T07:07:36;8.40;99.90
62339;DHT22;48368;53.406;6.214;2022-11-15T07:10:02;8.40;99.90
62339;DHT22;48368;53.406;6.214;2022-11-15T07:12:28;8.50;99.90
62339;DHT22;48368;53.406;6.214;2022-11-15T07:14:53;8.50;99.90
62339;DHT22;48368;53.406;6.214;2022-11-15T07:17:19;8.50;99.90
62339;DHT22;48368;53.406;6.214;2022-11-15T07:19:44;8.60;99.90
62339;DHT22;48368;53.406;6.214;2022-11-15T07:22:10;8.60;99.90
62339;DHT22;48368;53.406;6.214;2022-11-15T07:24:36;8.60;99.90
62339;DHT22;48368;53.406;6.214;2022-11-15T07:27:01;8.70;99.90
62339;DHT22;48368;53.406;6.214;2022-11-15T07:29:27;8.70;99.90
62339;DHT22;48368;53.406;6.214;2022-11-15T07:31:53;8.70;99.90
62339;DHT22;48368;53.406;6.214;2022-11-15T07:34:18;8.70;99.90
62339;DHT22;48368;53.406;6.214;2022-11-15T07:36:44;8.80;99.90
62339;DHT22;48368;53.406;6.214;2022-11-15T07:39:10;8.70;99.90
62339;DHT22;48368;53.406;6.214;2022-11-15T07:41:37;8.90;99.90
62339;DHT22;48368;53.406;6.214;2022-11-15T07:44:04;8.90;99.90
62339;DHT22;48368;53.406;6.214;2022-11-15T07:46:29;8.90;99.90
62339;DHT22;48368;53.406;6.214;2022-11-15T07:48:56;9.00;99.90
62339;DHT22;48368;53.406;6.214;2022-11-15T07:51:22;9.00;99.90
62339;DHT22;48368;53.406;6.214;2022-11-15T07:53:48;9.10;99.90
62339;DHT22;48368;53.406;6.214;2022-11-15T07:56:13;9.10;99.90
62339;DHT22;48368;53.406;6.214;2022-11-15T07:58:39;9.10;99.90
62339;DHT22;48368;53.406;6.214;2022-11-15T08:01:06;9.20;99.90
62339;DHT22;48368;53.406;6.214;2022-11-15T08:03:33;9.20;99.90
62339;DHT22;48368;53.406;6.214;2022-11-15T08:05:58;9.30;99.90
62339;DHT22;48368;53.406;6.214;2022-11-15T08:08:24;9.30;99.90
62339;DHT22;48368;53.406;6.214;2022-11-15T08:10:50;9.40;99.90
62339;DHT22;48368;53.406;6.214;2022-11-15T08:13:16;9.40;99.90
62339;DHT22;48368;53.406;6.214;2022-11-15T08:15:42;9.40;99.90
62339;DHT22;48368;53.406;6.214;2022-11-15T08:18:14;9.50;99.90
62339;DHT22;48368;53.406;6.214;2022-11-15T08:20:41;9.50;99.90
62339;DHT22;48368;53.406;6.214;2022-11-15T08:23:07;9.60;99.90
62339;DHT22;48368;53.406;6.214;2022-11-15T08:25:34;9.60;99.90
62339;DHT22;48368;53.406;6.214;2022-11-15T08:28:02;9.60;99.90
62339;DHT22;48368;53.406;6.214;2022-11-15T08:30:29;9.60;99.90
62339;DHT22;48368;53.406;6.214;2022-11-15T08:32:57;9.70;99.90
62339;DHT22;48368;53.406;6.214;2022-11-15T08:35:23;9.70;99.90
62339;DHT22;48368;53.406;6.214;2022-11-15T08:37:49;9.70;99.90
62339;DHT22;48368;53.406;6.214;2022-11-15T08:40:17;9.80;99.90
62339;DHT22;48368;53.406;6.214;2022-11-15T08:42:46;9.80;99.90
62339;DHT22;48368;53.406;6.214;2022-11-15T08:45:12;9.90;99.90
62339;DHT22;48368;53.406;6.214;2022-11-15T08:47:38;9.80;99.90
62339;DHT22;48368;53.406;6.214;2022-11-15T08:50:04;9.90;99.90
62339;DHT22;48368;53.406;6.214;2022-11-15T08:52:30;9.90;99.90
62339;DHT22;48368;53.406;6.214;2022-11-15T08:54:55;10.00;99.90
62339;DHT22;48368;53.406;6.214;2022-11-15T08:57:21;10.00;99.90
62339;DHT22;48368;53.406;6.214;2022-11-15T08:59:47;10.00;99.90
62339;DHT22;48368;53.406;6.214;2022-11-15T09:02:13;10.10;99.90
62339;DHT22;48368;53.406;6.214;2022-11-15T09:04:43;10.10;99.90
62339;DHT22;48368;53.406;6.214;2022-11-15T09:07:10;10.10;99.90
62339;DHT22;48368;53.406;6.214;2022-11-15T09:09:36;10.10;99.90
62339;DHT22;48368;53.406;6.214;2022-11-15T09:12:02;10.20;99.90
62339;DHT22;48368;53.406;6.214;2022-11-15T09:14:28;10.20;99.90
62339;DHT22;48368;53.406;6.214;2022-11-15T09:16:53;10.30;99.90
62339;DHT22;48368;53.406;6.214;2022-11-15T09:19:19;10.20;99.90
62339;DHT22;48368;53.406;6.214;2022-11-15T09:21:44;10.30;99.90
62339;DHT22;48368;53.406;6.214;2022-11-15T09:24:10;10.30;99.90
62339;DHT22;48368;53.406;6.214;2022-11-15T09:26:36;10.40;99.90
62339;DHT22;48368;53.406;6.214;2022-11-15T09:29:02;10.30;99.90
62339;DHT22;48368;53.406;6.214;2022-11-15T09:31:27;10.40;99.90
62339;DHT22;48368;53.406;6.214;2022-11-15T09:33:55;10.40;99.90
62339;DHT22;48368;53.406;6.214;2022-11-15T09:36:20;10.50;99.90
62339;DHT22;48368;53.406;6.214;2022-11-15T09:38:46;10.40;99.90
62339;DHT22;48368;53.406;6.214;2022-11-15T09:49:40;10.60;99.90
62339;DHT22;48368;53.406;6.214;2022-11-15T09:52:07;10.60;99.90
62339;DHT22;48368;53.406;6.214;2022-11-15T09:54:36;10.60;99.90
62339;DHT22;48368;53.406;6.214;2022-11-15T10:05:13;10.80;99.90
62339;DHT22;48368;53.406;6.214;2022-11-15T10:10:42;10.90;99.90
62339;DHT22;48368;53.406;6.214;2022-11-15T10:15:47;11.00;99.90
62339;DHT22;48368;53.406;6.214;2022-11-15T10:20:50;11.00;99.90
62339;DHT22;48368;53.406;6.214;2022-11-15T10:23:19;11.00;99.90
62339;DHT22;48368;53.406;6.214;2022-11-15T10:25:46;11.10;99.90
62339;DHT22;48368;53.406;6.214;2022-11-15T10:28:21;11.10;99.90
62339;DHT22;48368;53.406;6.214;2022-11-15T10:30:49;11.10;99.90
62339;DHT22;48368;53.406;6.214;2022-11-15T10:33:35;11.10;99.90
62339;DHT22;48368;53.406;6.214;2022-11-15T10:36:20;11.20;99.90
62339;DHT22;48368;53.406;6.214;2022-11-15T10:41:17;11.20;99.90
62339;DHT22;48368;53.406;6.214;2022-11-15T10:43:43;11.20;99.90
62339;DHT22;48368;53.406;6.214;2022-11-15T10:46:23;11.20;99.90
62339;DHT22;48368;53.406;6.214;2022-11-15T10:48:49;11.30;99.90
62339;DHT22;48368;53.406;6.214;2022-11-15T10:51:27;11.40;99.90
62339;DHT22;48368;53.406;6.214;2022-11-15T10:53:56;11.40;99.90
62339;DHT22;48368;53.406;6.214;2022-11-15T10:56:25;11.30;99.90
62339;DHT22;48368;53.406;6.214;2022-11-15T10:58:54;11.40;99.90
62339;DHT22;48368;53.406;6.214;2022-11-15T11:01:25;11.40;99.90
62339;DHT22;48368;53.406;6.214;2022-11-15T11:06:25;11.40;99.90
62339;DHT22;48368;53.406;6.214;2022-11-15T11:11:19;11.60;99.90
62339;DHT22;48368;53.406;6.214;2022-11-15T11:13:45;11.50;99.90
62339;DHT22;48368;53.406;6.214;2022-11-15T11:24:18;11.60;99.90
62339;DHT22;48368;53.406;6.214;2022-11-15T11:38:39;11.60;99.90
62339;DHT22;48368;53.406;6.214;2022-11-15T11:41:24;11.70;99.90
62339;DHT22;48368;53.406;6.214;2022-11-15T11:44:18;11.70;99.90
62339;DHT22;48368;53.406;6.214;2022-11-15T11:55:12;11.70;99.90
62339;DHT22;48368;53.406;6.214;2022-11-15T12:00:25;11.70;99.90
62339;DHT22;48368;53.406;6.214;2022-11-15T12:03:12;11.70;99.90
62339;DHT22;48368;53.406;6.214;2022-11-15T12:05:48;11.80;99.90
62339;DHT22;48368;53.406;6.214;2022-11-15T12:08:39;11.70;99.90
62339;DHT22;48368;53.406;6.214;2022-11-15T12:11:11;11.70;99.90
62339;DHT22;48368;53.406;6.214;2022-11-15T12:13:39;11.70;99.90
62339;DHT22;48368;53.406;6.214;2022-11-15T12:16:15;11.80;99.90
62339;DHT22;48368;53.406;6.214;2022-11-15T12:18:48;11.70;99.90
62339;DHT22;48368;53.406;6.214;2022-11-15T12:21:23;11.70;99.90
62339;DHT22;48368;53.406;6.214;2022-11-15T12:23:54;11.70;99.90
62339;DHT22;48368;53.406;6.214;2022-11-15T12:26:28;11.70;99.90
62339;DHT22;48368;53.406;6.214;2022-11-15T12:29:25;11.70;99.90
62339;DHT22;48368;53.406;6.214;2022-11-15T12:31:54;11.70;99.90
62339;DHT22;48368;53.406;6.214;2022-11-15T12:36:49;11.80;99.90
62339;DHT22;48368;53.406;6.214;2022-11-15T12:39:16;11.80;99.90
62339;DHT22;48368;53.406;6.214;2022-11-15T13:17:40;12.40;99.90
62339;DHT22;48368;53.406;6.214;2022-11-15T13:22:44;12.30;99.90
62339;DHT22;48368;53.406;6.214;2022-11-15T13:28:00;12.20;99.90
62339;DHT22;48368;53.406;6.214;2022-11-15T13:30:29;12.20;99.90
62339;DHT22;48368;53.406;6.214;2022-11-15T13:32:57;12.20;99.90
62339;DHT22;48368;53.406;6.214;2022-11-15T13:35:28;12.20;99.90
62339;DHT22;48368;53.406;6.214;2022-11-15T13:37:56;12.10;99.90
62339;DHT22;48368;53.406;6.214;2022-11-15T13:40:28;12.10;99.90
62339;DHT22;48368;53.406;6.214;2022-11-15T13:42:57;12.00;99.90
62339;DHT22;48368;53.406;6.214;2022-11-15T13:45:23;12.00;99.90
62339;DHT22;48368;53.406;6.214;2022-11-15T13:47:54;12.00;99.90
62339;DHT22;48368;53.406;6.214;2022-11-15T13:50:26;11.90;99.90
62339;DHT22;48368;53.406;6.214;2022-11-15T13:52:53;11.90;99.90
62339;DHT22;48368;53.406;6.214;2022-11-15T13:55:23;11.90;99.90
62339;DHT22;48368;53.406;6.214;2022-11-15T13:57:53;12.00;99.90
62339;DHT22;48368;53.406;6.214;2022-11-15T14:00:38;12.00;99.90
62339;DHT22;48368;53.406;6.214;2022-11-15T14:03:24;12.00;99.90
62339;DHT22;48368;53.406;6.214;2022-11-15T14:06:21;12.00;99.90
62339;DHT22;48368;53.406;6.214;2022-11-15T14:11:35;11.90;99.90
62339;DHT22;48368;53.406;6.214;2022-11-15T14:16:40;11.70;99.90
62339;DHT22;48368;53.406;6.214;2022-11-15T14:19:08;11.80;99.90
62339;DHT22;48368;53.406;6.214;2022-11-15T14:21:35;11.70;99.90
62339;DHT22;48368;53.406;6.214;2022-11-15T14:24:17;11.70;99.90
62339;DHT22;48368;53.406;6.214;2022-11-15T14:26:43;11.60;99.90
62339;DHT22;48368;53.406;6.214;2022-11-15T14:29:42;11.70;99.90
62339;DHT22;48368;53.406;6.214;2022-11-15T14:34:42;11.50;99.90
62339;DHT22;48368;53.406;6.214;2022-11-15T14:39:42;11.40;99.90
62339;DHT22;48368;53.406;6.214;2022-11-15T14:42:09;11.50;99.90
62339;DHT22;48368;53.406;6.214;2022-11-15T14:44:35;11.40;99.90
62339;DHT22;48368;53.406;6.214;2022-11-15T14:47:00;11.30;99.90
62339;DHT22;48368;53.406;6.214;2022-11-15T14:49:26;11.30;99.90
62339;DHT22;48368;53.406;6.214;2022-11-15T14:51:51;11.20;99.90
62339;DHT22;48368;53.406;6.214;2022-11-15T14:54:17;11.20;99.90
62339;DHT22;48368;53.406;6.214;2022-11-15T14:56:43;11.30;99.90
62339;DHT22;48368;53.406;6.214;2022-11-15T14:59:08;11.20;99.90
62339;DHT22;48368;53.406;6.214;2022-11-15T15:01:34;11.10;99.90
62339;DHT22;48368;53.406;6.214;2022-11-15T15:03:59;11.00;99.90
62339;DHT22;48368;53.406;6.214;2022-11-15T15:06:26;11.00;99.90
62339;DHT22;48368;53.406;6.214;2022-11-15T15:08:51;10.90;99.90
62339;DHT22;48368;53.406;6.214;2022-11-15T15:11:25;11.00;99.90
62339;DHT22;48368;53.406;6.214;2022-11-15T15:13:52;10.90;99.90
62339;DHT22;48368;53.406;6.214;2022-11-15T15:16:18;10.90;99.90
62339;DHT22;48368;53.406;6.214;2022-11-15T15:18:44;10.90;99.90
62339;DHT22;48368;53.406;6.214;2022-11-15T15:21:24;10.80;99.90
62339;DHT22;48368;53.406;6.214;2022-11-15T15:23:51;10.70;99.90
62339;DHT22;48368;53.406;6.214;2022-11-15T15:26:19;10.60;99.90
62339;DHT22;48368;53.406;6.214;2022-11-15T15:28:45;10.60;99.90
62339;DHT22;48368;53.406;6.214;2022-11-15T15:31:11;10.60;99.90
62339;DHT22;48368;53.406;6.214;2022-11-15T15:33:37;10.50;99.90
62339;DHT22;48368;53.406;6.214;2022-11-15T15:36:03;10.50;99.90
62339;DHT22;48368;53.406;6.214;2022-11-15T15:38:29;10.60;99.90
62339;DHT22;48368;53.406;6.214;2022-11-15T15:40:54;10.50;99.90
62339;DHT22;48368;53.406;6.214;2022-11-15T15:43:20;10.40;99.90
62339;DHT22;48368;53.406;6.214;2022-11-15T15:45:46;10.50;99.90
62339;DHT22;48368;53.406;6.214;2022-11-15T15:48:16;10.40;99.90
62339;DHT22;48368;53.406;6.214;2022-11-15T15:50:42;10.40;99.90
62339;DHT22;48368;53.406;6.214;2022-11-15T15:53:09;10.40;99.90
62339;DHT22;48368;53.406;6.214;2022-11-15T15:55:36;10.40;99.90
62339;DHT22;48368;53.406;6.214;2022-11-15T15:58:02;10.40;99.90
62339;DHT22;48368;53.406;6.214;2022-11-15T16:00:28;10.20;99.90
62339;DHT22;48368;53.406;6.214;2022-11-15T16:02:54;10.20;99.90
62339;DHT22;48368;53.406;6.214;2022-11-15T16:05:21;10.20;99.90
62339;DHT22;48368;53.406;6.214;2022-11-15T16:07:47;10.20;99.90
62339;DHT22;48368;53.406;6.214;2022-11-15T16:10:33;10.10;99.90
62339;DHT22;48368;53.406;6.214;2022-11-15T16:12:59;10.20;99.90
62339;DHT22;48368;53.406;6.214;2022-11-15T16:15:27;10.10;99.90
62339;DHT22;48368;53.406;6.214;2022-11-15T16:17:56;10.10;99.90
62339;DHT22;48368;53.406;6.214;2022-11-15T16:20:38;10.10;99.90
62339;DHT22;48368;53.406;6.214;2022-11-15T16:23:09;10.00;99.90
62339;DHT22;48368;53.406;6.214;2022-11-15T16:26:02;10.00;99.90
62339;DHT22;48368;53.406;6.214;2022-11-15T16:28:32;10.00;99.90
62339;DHT22;48368;53.406;6.214;2022-11-15T16:31:03;10.00;99.90
62339;DHT22;48368;53.406;6.214;2022-11-15T16:33:30;10.00;99.90
62339;DHT22;48368;53.406;6.214;2022-11-15T16:35:55;10.00;99.90
62339;DHT22;48368;53.406;6.214;2022-11-15T16:38:21;9.90;99.90
62339;DHT22;48368;53.406;6.214;2022-11-15T16:40:47;9.90;99.90
62339;DHT22;48368;53.406;6.214;2022-11-15T16:43:12;9.90;99.90
62339;DHT22;48368;53.406;6.214;2022-11-15T16:45:38;9.90;99.90
62339;DHT22;48368;53.406;6.214;2022-11-15T16:48:04;10.00;99.90
62339;DHT22;48368;53.406;6.214;2022-11-15T16:50:33;10.00;99.90
62339;DHT22;48368;53.406;6.214;2022-11-15T16:53:05;10.00;99.90
62339;DHT22;48368;53.406;6.214;2022-11-15T16:55:31;10.00;99.90
62339;DHT22;48368;53.406;6.214;2022-11-15T16:57:57;10.00;99.90
62339;DHT22;48368;53.406;6.214;2022-11-15T17:00:23;10.00;99.90
62339;DHT22;48368;53.406;6.214;2022-11-15T17:02:50;10.00;99.90
62339;DHT22;48368;53.406;6.214;2022-11-15T17:05:18;10.00;99.90
62339;DHT22;48368;53.406;6.214;2022-11-15T17:07:46;10.00;99.90
62339;DHT22;48368;53.406;6.214;2022-11-15T17:10:15;10.00;99.90
62339;DHT22;48368;53.406;6.214;2022-11-15T17:12:40;10.10;99.90
62339;DHT22;48368;53.406;6.214;2022-11-15T17:15:06;10.10;99.90
62339;DHT22;48368;53.406;6.214;2022-11-15T17:17:32;10.10;99.90
62339;DHT22;48368;53.406;6.214;2022-11-15T17:19:58;10.10;99.90
62339;DHT22;48368;53.406;6.214;2022-11-15T17:22:24;10.10;99.90
62339;DHT22;48368;53.406;6.214;2022-11-15T17:24:50;10.10;99.90
62339;DHT22;48368;53.406;6.214;2022-11-15T17:27:15;10.10;99.90
62339;DHT22;48368;53.406;6.214;2022-11-15T17:29:41;10.10;99.90
62339;DHT22;48368;53.406;6.214;2022-11-15T17:32:07;10.20;99.90
62339;DHT22;48368;53.406;6.214;2022-11-15T17:34:33;10.20;99.90
62339;DHT22;48368;53.406;6.214;2022-11-15T17:36:59;10.10;99.90
62339;DHT22;48368;53.406;6.214;2022-11-15T17:39:25;10.20;99.90
62339;DHT22;48368;53.406;6.214;2022-11-15T17:41:51;10.20;99.90
62339;DHT22;48368;53.406;6.214;2022-11-15T17:44:16;10.20;99.90
62339;DHT22;48368;53.406;6.214;2022-11-15T17:46:43;10.20;99.90
62339;DHT22;48368;53.406;6.214;2022-11-15T17:49:08;10.20;99.90
62339;DHT22;48368;53.406;6.214;2022-11-15T17:51:35;10.30;99.90
62339;DHT22;48368;53.406;6.214;2022-11-15T17:54:01;10.30;99.90
62339;DHT22;48368;53.406;6.214;2022-11-15T17:56:27;10.30;99.90
62339;DHT22;48368;53.406;6.214;2022-11-15T17:58:56;10.30;99.90
62339;DHT22;48368;53.406;6.214;2022-11-15T18:01:23;10.40;99.90
62339;DHT22;48368;53.406;6.214;2022-11-15T18:03:49;10.30;99.90
62339;DHT22;48368;53.406;6.214;2022-11-15T18:06:16;10.30;99.90